Time;durP1;ratioP1;P1;durP2;ratioP2;P2;SDS_P1;SDS_P2;PMS_P1;PMS_P2;Temp;Humidity;BMP_temperature;BMP_pressure;BME280_temperature;BME280_humidity;BME280_pressure;Samples;Min_cycle;Max_cycle;Signal;HPM_P1;HPM_P2
2021/09/05 00:04:01;;;;;;;12.90;4.70;;;;;;;12.16;62.60;99164.37;457030;1202;108934;-42
2021/09/05 00:14:05;;;;;;;13.00;4.60;;;;;;;12.04;62.78;99175.91;456923;1203;99285;-42
2021/09/05 00:24:09;;;;;;;8.10;3.90;;;;;;;11.94;62.84;99196.29;457074;1203;111964;-43
2021/09/05 00:34:13;;;;;;;7.80;3.90;;;;;;;11.94;63.11;99195.02;456977;1203;108365;-42
2021/09/05 00:44:17;;;;;;;10.70;4.80;;;;;;;11.93;63.27;99202.05;456992;1200;99020;-42
2021/09/05 00:54:21;;;;;;;9.90;4.40;;;;;;;11.88;63.67;99198.36;456887;1202;99001;-43
2021/09/05 01:04:24;;;;;;;7.60;4.30;;;;;;;11.89;63.99;99193.39;457067;1204;107478;-43
2021/09/05 01:14:28;;;;;;;7.80;4.90;;;;;;;11.72;63.89;99191.36;457117;1202;99010;-43
2021/09/05 01:24:32;;;;;;;9.50;3.70;;;;;;;11.39;64.03;99205.56;456863;1202;109102;-42
2021/09/05 01:34:36;;;;;;;7.10;3.70;;;;;;;11.02;64.53;99209.94;456975;1203;98619;-43
2021/09/05 01:44:39;;;;;;;8.80;3.60;;;;;;;10.82;65.25;99209.24;456909;1203;111866;-44
2021/09/05 01:54:42;;;;;;;12.50;4.30;;;;;;;10.59;65.69;99208.68;457733;1193;108401;-42
2021/09/05 02:04:46;;;;;;;8.00;4.30;;;;;;;10.23;66.11;99213.18;456833;1200;99029;-42
2021/09/05 02:14:50;;;;;;;8.40;2.80;;;;;;;10.09;66.35;99224.18;456843;1202;108512;-42
2021/09/05 02:24:54;;;;;;;9.10;3.50;;;;;;;9.81;66.45;99222.33;457055;1195;99025;-41
2021/09/05 02:34:57;;;;;;;6.40;3.60;;;;;;;9.60;67.12;99237.23;456978;1202;112012;-42
2021/09/05 02:45:02;;;;;;;6.60;3.80;;;;;;;9.46;67.52;99246.30;456849;1195;108472;-42
2021/09/05 02:55:22;;;;;;;5.30;3.80;;;;;;;9.21;67.90;99253.86;456957;1204;99662;-42
2021/09/05 03:05:26;;;;;;;11.70;4.40;;;;;;;9.00;68.30;99255.71;456975;1202;111915;-47
2021/09/05 03:15:29;;;;;;;9.10;4.50;;;;;;;8.79;68.55;99258.75;457050;1202;108334;-43
2021/09/05 03:25:33;;;;;;;14.80;5.20;;;;;;;8.66;68.82;99264.22;456913;1202;98014;-42
2021/09/05 03:35:37;;;;;;;9.70;4.90;;;;;;;8.43;69.11;99264.55;457008;1200;108420;-41
2021/09/05 03:45:41;;;;;;;13.80;5.60;;;;;;;8.23;69.50;99288.27;457009;1200;99669;-42
2021/09/05 03:55:45;;;;;;;7.30;4.20;;;;;;;7.97;69.55;99281.65;456728;1203;112099;-42
2021/09/05 04:05:49;;;;;;;9.10;4.70;;;;;;;7.85;69.97;99282.83;456852;1202;108493;-42
2021/09/05 04:15:52;;;;;;;8.70;4.70;;;;;;;7.91;70.15;99296.09;456953;1200;98585;-43
2021/09/05 04:25:56;;;;;;;12.90;7.20;;;;;;;7.95;70.40;99303.57;457000;1203;108001;-42
2021/09/05 04:36:01;;;;;;;11.00;5.80;;;;;;;7.91;70.66;99309.83;456877;1202;99016;-42
2021/09/05 04:46:05;;;;;;;13.60;5.70;;;;;;;7.95;70.84;99318.67;456829;1200;111974;-42
2021/09/05 04:56:09;;;;;;;11.10;5.10;;;;;;;8.15;71.08;99321.56;456899;1202;108226;-41
2021/09/05 05:06:12;;;;;;;8.80;5.70;;;;;;;8.65;71.22;99323.36;456953;1195;98993;-41
2021/09/05 05:16:17;;;;;;;9.50;5.50;;;;;;;9.55;71.64;99341.60;456869;1195;109132;-42
2021/09/05 05:26:21;;;;;;;9.10;5.40;;;;;;;11.37;70.97;99350.48;456808;1202;98646;-42
2021/09/05 05:36:25;;;;;;;7.30;5.60;;;;;;;12.80;69.75;99352.78;457051;1202;111958;-41
2021/09/05 05:46:28;;;;;;;9.30;4.60;;;;;;;13.84;68.77;99361.02;456998;1195;108453;-41
2021/09/05 05:56:32;;;;;;;11.70;4.60;;;;;;;14.96;67.33;99370.70;456841;1202;99010;-42
2021/09/05 06:06:35;;;;;;;6.60;4.10;;;;;;;15.62;65.80;99378.40;456923;1196;108314;-41
2021/09/05 06:16:39;;;;;;;10.40;4.70;;;;;;;15.83;64.18;99382.71;456974;1202;98964;-41
2021/09/05 06:26:43;;;;;;;11.10;5.60;;;;;;;15.86;62.47;99391.56;456914;1195;112264;-40
2021/09/05 06:36:46;;;;;;;12.90;5.50;;;;;;;16.48;61.43;99391.94;456975;1202;98978;-42
2021/09/05 06:46:50;;;;;;;14.00;6.60;;;;;;;17.01;60.10;99397.98;457185;1200;98970;-42
2021/09/05 06:56:53;;;;;;;13.70;5.50;;;;;;;17.67;59.33;99405.55;457055;1194;112127;-40
2021/09/05 07:06:57;;;;;;;12.60;6.20;;;;;;;18.17;58.43;99418.17;456682;1202;98990;-42
2021/09/05 07:17:01;;;;;;;15.40;5.50;;;;;;;18.43;56.73;99434.47;456768;1194;98614;-41
2021/09/05 07:27:05;;;;;;;7.80;3.50;;;;;;;18.25;55.50;99440.86;456964;1194;112217;-41
2021/09/05 07:37:09;;;;;;;15.30;5.70;;;;;;;18.04;53.90;99451.02;456765;1195;108483;-42
2021/09/05 07:47:12;;;;;;;5.10;2.10;;;;;;;17.65;51.74;99465.71;457075;1202;98065;-41
2021/09/05 07:57:16;;;;;;;1.80;1.60;;;;;;;17.39;50.91;99473.86;456931;1202;109101;-41
2021/09/05 08:07:20;;;;;;;4.50;1.80;;;;;;;17.67;50.72;99477.17;456605;1203;98990;-41
2021/09/05 08:17:23;;;;;;;2.80;1.90;;;;;;;17.85;49.65;99492.42;456827;1202;112098;-44
2021/09/05 08:27:27;;;;;;;6.40;1.70;;;;;;;17.62;48.31;99498.36;456855;1202;108427;-40
2021/09/05 08:37:31;;;;;;;3.10;1.20;;;;;;;18.00;48.94;99503.80;456803;1202;99070;-41
2021/09/05 08:47:36;;;;;;;3.60;1.30;;;;;;;17.79;47.44;99511.73;456928;1202;108944;-42
2021/09/05 08:57:39;;;;;;;3.80;1.50;;;;;;;18.08;48.21;99520.56;456915;1203;98994;-41
2021/09/05 09:07:46;;;;;;;1.90;1.50;;;;;;;18.03;46.84;99522.20;456902;1202;112067;-42
2021/09/05 09:17:51;;;;;;;2.70;1.60;;;;;;;18.18;47.61;99525.25;456833;1202;108497;-41
2021/09/05 09:27:55;;;;;;;1.50;1.10;;;;;;;18.13;46.76;99526.39;456928;1202;99000;-41
2021/09/05 09:37:59;;;;;;;2.60;1.00;;;;;;;18.37;46.30;99524.25;456995;1202;108470;-41
2021/09/05 09:48:06;;;;;;;2.30;1.30;;;;;;;18.40;46.05;99518.38;457024;1202;99019;-41
2021/09/05 09:58:10;;;;;;;2.40;1.70;;;;;;;18.36;46.03;99519.80;457104;1202;112241;-41
2021/09/05 10:08:15;;;;;;;2.20;1.40;;;;;;;18.31;46.02;99522.77;456658;1203;108384;-41
2021/09/05 10:18:18;;;;;;;2.30;1.30;;;;;;;18.42;46.27;99519.25;456782;1203;99055;-41
2021/09/05 10:28:41;;;;;;;2.70;1.30;;;;;;;18.48;45.91;99517.03;456744;1203;109022;-41
2021/09/05 10:38:47;;;;;;;1.10;1.00;;;;;;;18.48;45.74;99522.02;456723;1197;98999;-41
2021/09/05 10:48:54;;;;;;;2.10;1.00;;;;;;;18.64;46.10;99519.12;456886;1202;110735;-41
2021/09/05 10:58:59;;;;;;;2.60;1.00;;;;;;;18.68;45.53;99520.70;456832;1195;107937;-42
2021/09/05 11:09:31;;;;;;;1.60;1.10;;;;;;;18.64;45.14;99523.18;456906;1197;99396;-42
2021/09/05 11:19:34;;;;;;;1.70;1.00;;;;;;;18.50;44.98;99524.91;456966;1202;108505;-42
2021/09/05 11:29:39;;;;;;;1.10;0.90;;;;;;;18.52;45.27;99516.95;456932;1194;98587;-42
2021/09/05 11:39:51;;;;;;;1.40;1.30;;;;;;;18.61;44.84;99516.73;456949;1202;112077;-41
2021/09/05 12:00:04;;;;;;;1.10;0.90;;;;;;;18.90;44.35;99511.85;457178;1202;99006;-43
2021/09/05 12:10:10;;;;;;;2.00;1.20;;;;;;;18.36;44.18;99521.41;457158;1202;107507;-41
2021/09/05 12:20:15;;;;;;;1.90;1.30;;;;;;;18.69;43.78;99507.84;457144;1195;99020;-42
2021/09/05 12:30:24;;;;;;;1.30;0.90;;;;;;;18.87;43.71;99507.48;457135;1202;112200;-44
2021/09/05 12:40:38;;;;;;;4.00;1.40;;;;;;;18.75;43.33;99508.68;457209;1202;108313;-42
2021/09/05 12:50:42;;;;;;;3.90;0.90;;;;;;;18.48;43.84;99506.86;457102;1197;98991;-41
2021/09/05 13:00:46;;;;;;;1.10;0.70;;;;;;;18.29;44.61;99509.96;457059;1195;108659;-41
2021/09/05 13:10:49;;;;;;;1.10;1.00;;;;;;;18.68;44.14;99502.48;457079;1202;99118;-44
2021/09/05 13:20:53;;;;;;;2.10;1.40;;;;;;;18.45;43.76;99508.39;456924;1203;112036;-42
2021/09/05 13:30:57;;;;;;;2.70;1.20;;;;;;;18.44;44.54;99505.45;456562;1203;108405;-42
2021/09/05 13:41:01;;;;;;;1.70;1.00;;;;;;;18.44;44.09;99503.83;457852;1196;99278;-41
2021/09/05 13:51:06;;;;;;;2.00;1.10;;;;;;;18.48;43.66;99504.81;456077;1197;107054;-43
2021/09/05 14:01:10;;;;;;;1.50;1.20;;;;;;;18.23;44.17;99503.49;456345;1196;98611;-41
2021/09/05 14:11:14;;;;;;;2.60;1.20;;;;;;;18.32;44.38;99495.52;456565;1197;112057;-41
2021/09/05 14:21:17;;;;;;;5.10;1.50;;;;;;;18.39;44.20;99500.91;456773;1203;108579;-41
2021/09/05 15:12:14;;;;;;;1.90;0.90;;;;;;;18.04;44.28;99495.50;457381;1202;108640;-41
2021/09/05 16:23:52;;;;;;;2.80;1.70;;;;;;;17.03;46.06;99480.08;457041;1202;112075;-42
2021/09/05 16:33:58;;;;;;;2.60;1.70;;;;;;;16.81;46.54;99475.28;457233;1195;107471;-43
2021/09/05 16:44:02;;;;;;;1.80;1.40;;;;;;;16.55;46.93;99486.52;457194;1202;99121;-42
2021/09/05 16:54:05;;;;;;;3.40;1.30;;;;;;;16.28;47.57;99483.71;457335;1203;106305;-42
2021/09/05 17:04:08;;;;;;;2.90;2.00;;;;;;;16.00;48.52;99488.67;456975;1195;99065;-43
2021/09/05 17:14:12;;;;;;;4.20;2.60;;;;;;;15.55;49.50;99499.35;456967;1195;112154;-42
2021/09/05 17:24:16;;;;;;;3.30;2.10;;;;;;;15.15;50.24;99505.88;456963;1195;108404;-42
2021/09/05 17:34:19;;;;;;;5.80;3.50;;;;;;;14.63;51.27;99508.78;456993;1203;99135;-42
2021/09/05 17:44:22;;;;;;;9.50;3.70;;;;;;;14.18;52.15;99522.67;457027;1202;108331;-42
2021/09/05 17:54:26;;;;;;;5.80;2.30;;;;;;;13.84;53.06;99533.30;456968;1195;98618;-42
2021/09/05 18:04:30;;;;;;;3.40;2.00;;;;;;;13.49;53.96;99540.33;457252;1198;112768;-42
2021/09/05 18:14:33;;;;;;;2.60;2.20;;;;;;;13.13;55.02;99542.95;456934;1195;108481;-43
2021/09/05 18:24:37;;;;;;;4.70;2.00;;;;;;;12.87;55.91;99546.66;456925;1203;98991;-42
2021/09/05 18:34:40;;;;;;;5.10;2.80;;;;;;;12.70;56.38;99554.30;456770;1202;108538;-43
2021/09/05 18:44:44;;;;;;;5.20;2.90;;;;;;;12.73;56.41;99568.77;457010;1195;99025;-42
2021/09/05 18:54:47;;;;;;;4.20;3.00;;;;;;;12.79;56.43;99570.64;457014;1202;112557;-43
2021/09/05 19:04:51;;;;;;;4.50;3.00;;;;;;;12.75;56.59;99569.73;456995;1195;108423;-42
2021/09/05 19:14:55;;;;;;;3.90;2.80;;;;;;;12.64;56.66;99570.25;456760;1202;98596;-40
2021/09/05 19:24:58;;;;;;;3.90;2.70;;;;;;;12.57;56.84;99574.73;457122;1200;108884;-42
2021/09/05 19:35:02;;;;;;;3.50;2.50;;;;;;;12.51;57.03;99579.67;457039;1200;99000;-42
2021/09/05 19:45:07;;;;;;;6.80;2.80;;;;;;;12.48;57.23;99584.20;457049;1203;112602;-42
2021/09/05 19:55:12;;;;;;;4.70;2.10;;;;;;;12.43;57.34;99582.25;457085;1195;107128;-43
2021/09/05 20:05:16;;;;;;;4.80;1.90;;;;;;;12.48;57.65;99591.67;457062;1203;99018;-42
2021/09/05 20:15:19;;;;;;;4.40;3.00;;;;;;;12.36;57.98;99594.31;456908;1202;108409;-41
2021/09/05 20:25:23;;;;;;;5.30;2.80;;;;;;;12.17;58.11;99592.15;457169;1203;99003;-42
2021/09/05 20:35:27;;;;;;;9.30;3.00;;;;;;;12.00;58.52;99600.80;457090;1202;112184;-42
2021/09/05 20:45:30;;;;;;;5.10;2.60;;;;;;;11.81;58.94;99600.96;457014;1196;106961;-43
2021/09/05 20:55:33;;;;;;;9.70;3.10;;;;;;;11.72;59.23;99601.57;457000;1202;98997;-42
2021/09/05 21:05:37;;;;;;;6.60;3.20;;;;;;;11.64;59.50;99596.81;457077;1200;108188;-43
2021/09/05 21:15:40;;;;;;;5.10;3.50;;;;;;;11.46;59.99;99597.17;457033;1195;98955;-43
2021/09/05 21:25:44;;;;;;;10.10;4.00;;;;;;;11.32;60.69;99592.19;456967;1200;112252;-43
2021/09/05 21:35:48;;;;;;;6.60;3.60;;;;;;;11.18;60.73;99588.10;456956;1202;108655;-42
2021/09/05 21:45:51;;;;;;;7.50;4.20;;;;;;;11.01;61.17;99582.55;456816;1203;98161;-45
2021/09/05 21:55:56;;;;;;;7.70;3.80;;;;;;;10.93;61.87;99585.63;457079;1195;108595;-42
2021/09/05 22:05:59;;;;;;;7.90;4.50;;;;;;;10.96;62.33;99585.22;457096;1202;99029;-42
2021/09/05 22:16:03;;;;;;;7.30;4.10;;;;;;;10.89;62.53;99595.92;456919;1202;112420;-43
2021/09/05 22:26:07;;;;;;;10.30;5.10;;;;;;;10.80;62.66;99590.61;457026;1202;108267;-42
2021/09/05 22:36:10;;;;;;;7.50;4.90;;;;;;;10.56;62.83;99596.54;456818;1204;99024;-43
2021/09/05 22:46:14;;;;;;;7.10;4.90;;;;;;;10.34;63.05;99602.41;456817;1202;108702;-42
2021/09/05 22:56:19;;;;;;;11.20;6.80;;;;;;;9.99;63.33;99606.55;456957;1203;99009;-42
2021/09/05 23:06:23;;;;;;;14.00;7.40;;;;;;;9.70;63.93;99602.33;456975;1203;111988;-42
2021/09/05 23:16:26;;;;;;;9.30;6.60;;;;;;;9.43;64.33;99604.41;456688;1202;110511;-42
2021/09/05 23:26:30;;;;;;;10.50;6.00;;;;;;;9.32;64.75;99605.02;456960;1195;98593;-43
2021/09/05 23:36:34;;;;;;;10.00;5.60;;;;;;;9.36;65.02;99599.06;456842;1203;108473;-42
2021/09/05 23:46:37;;;;;;;12.00;6.20;;;;;;;9.26;65.04;99596.51;456801;1200;99253;-42
2021/09/05 23:56:41;;;;;;;9.50;6.30;;;;;;;9.06;65.59;99595.16;456977;1202;112086;-44
